sensor_id;sensor_type;location;lat;lon;timestamp;P1;durP1;ratioP1;P2;durP2;ratioP2
16159;SDS011;8185;57.818;15.224;2023-02-23T00:00:23;2.30;;;2.10;;
16159;SDS011;8185;57.818;15.224;2023-02-23T00:02:54;3.03;;;2.23;;
16159;SDS011;8185;57.818;15.224;2023-02-23T00:05:23;2.57;;;2.20;;
16159;SDS011;8185;57.818;15.224;2023-02-23T00:07:51;2.23;;;2.03;;
16159;SDS011;8185;57.818;15.224;2023-02-23T00:10:19;2.80;;;2.10;;
16159;SDS011;8185;57.818;15.224;2023-02-23T00:12:55;2.43;;;2.23;;
16159;SDS011;8185;57.818;15.224;2023-02-23T00:15:23;2.33;;;2.13;;
16159;SDS011;8185;57.818;15.224;2023-02-23T00:17:51;2.77;;;2.40;;
16159;SDS011;8185;57.818;15.224;2023-02-23T00:20:19;2.20;;;1.77;;
16159;SDS011;8185;57.818;15.224;2023-02-23T00:22:51;2.57;;;2.33;;
16159;SDS011;8185;57.818;15.224;2023-02-23T00:25:19;2.77;;;1.80;;
16159;SDS011;8185;57.818;15.224;2023-02-23T00:27:48;1.97;;;1.70;;
16159;SDS011;8185;57.818;15.224;2023-02-23T00:30:17;2.20;;;2.00;;
16159;SDS011;8185;57.818;15.224;2023-02-23T00:32:45;3.37;;;2.00;;
16159;SDS011;8185;57.818;15.224;2023-02-23T00:35:13;3.07;;;1.90;;
16159;SDS011;8185;57.818;15.224;2023-02-23T00:37:43;2.30;;;2.00;;
16159;SDS011;8185;57.818;15.224;2023-02-23T00:40:12;2.93;;;2.10;;
16159;SDS011;8185;57.818;15.224;2023-02-23T00:42:41;2.60;;;2.20;;
16159;SDS011;8185;57.818;15.224;2023-02-23T00:45:10;2.80;;;2.17;;
16159;SDS011;8185;57.818;15.224;2023-02-23T00:47:40;2.93;;;2.43;;
16159;SDS011;8185;57.818;15.224;2023-02-23T00:50:09;2.70;;;2.17;;
16159;SDS011;8185;57.818;15.224;2023-02-23T00:52:39;2.60;;;2.10;;
16159;SDS011;8185;57.818;15.224;2023-02-23T00:55:08;2.30;;;2.03;;
16159;SDS011;8185;57.818;15.224;2023-02-23T00:57:37;2.37;;;2.00;;
16159;SDS011;8185;57.818;15.224;2023-02-23T01:00:05;1.70;;;1.60;;
16159;SDS011;8185;57.818;15.224;2023-02-23T01:02:43;2.20;;;2.00;;
16159;SDS011;8185;57.818;15.224;2023-02-23T01:05:10;2.33;;;2.03;;
16159;SDS011;8185;57.818;15.224;2023-02-23T01:10:06;2.53;;;2.23;;
16159;SDS011;8185;57.818;15.224;2023-02-23T01:12:45;2.20;;;1.73;;
16159;SDS011;8185;57.818;15.224;2023-02-23T01:15:13;2.13;;;1.93;;
16159;SDS011;8185;57.818;15.224;2023-02-23T01:17:42;2.77;;;1.70;;
16159;SDS011;8185;57.818;15.224;2023-02-23T01:20:11;2.10;;;1.70;;
16159;SDS011;8185;57.818;15.224;2023-02-23T01:22:42;2.60;;;2.00;;
16159;SDS011;8185;57.818;15.224;2023-02-23T01:25:09;2.07;;;1.90;;
16159;SDS011;8185;57.818;15.224;2023-02-23T01:27:37;2.00;;;1.90;;
16159;SDS011;8185;57.818;15.224;2023-02-23T01:30:06;2.37;;;1.70;;
16159;SDS011;8185;57.818;15.224;2023-02-23T01:32:34;2.60;;;1.80;;
16159;SDS011;8185;57.818;15.224;2023-02-23T01:35:04;2.27;;;1.73;;
16159;SDS011;8185;57.818;15.224;2023-02-23T01:37:33;1.97;;;1.67;;
16159;SDS011;8185;57.818;15.224;2023-02-23T01:40:01;1.87;;;1.77;;
16159;SDS011;8185;57.818;15.224;2023-02-23T01:42:35;1.80;;;1.70;;
16159;SDS011;8185;57.818;15.224;2023-02-23T01:48:00;1.80;;;1.57;;
16159;SDS011;8185;57.818;15.224;2023-02-23T01:50:36;1.67;;;1.57;;
16159;SDS011;8185;57.818;15.224;2023-02-23T01:53:08;3.13;;;2.00;;
16159;SDS011;8185;57.818;15.224;2023-02-23T01:55:36;1.70;;;1.50;;
16159;SDS011;8185;57.818;15.224;2023-02-23T01:58:06;2.17;;;1.70;;
16159;SDS011;8185;57.818;15.224;2023-02-23T02:00:40;2.73;;;1.57;;
16159;SDS011;8185;57.818;15.224;2023-02-23T02:03:13;1.53;;;1.30;;
16159;SDS011;8185;57.818;15.224;2023-02-23T02:05:48;2.47;;;1.50;;
16159;SDS011;8185;57.818;15.224;2023-02-23T02:08:16;2.10;;;1.80;;
16159;SDS011;8185;57.818;15.224;2023-02-23T02:10:48;2.73;;;1.60;;
16159;SDS011;8185;57.818;15.224;2023-02-23T02:13:20;1.90;;;1.70;;
16159;SDS011;8185;57.818;15.224;2023-02-23T02:15:58;3.40;;;2.00;;
16159;SDS011;8185;57.818;15.224;2023-02-23T02:18:55;1.50;;;1.40;;
16159;SDS011;8185;57.818;15.224;2023-02-23T02:28:00;1.70;;;1.60;;
16159;SDS011;8185;57.818;15.224;2023-02-23T02:31:14;2.17;;;1.83;;
16159;SDS011;8185;57.818;15.224;2023-02-23T02:34:07;1.90;;;1.53;;
16159;SDS011;8185;57.818;15.224;2023-02-23T02:37:18;2.00;;;1.80;;
16159;SDS011;8185;57.818;15.224;2023-02-23T02:39:58;1.60;;;1.50;;
16159;SDS011;8185;57.818;15.224;2023-02-23T02:42:44;1.87;;;1.50;;
16159;SDS011;8185;57.818;15.224;2023-02-23T02:45:26;2.20;;;1.80;;
16159;SDS011;8185;57.818;15.224;2023-02-23T02:48:01;1.70;;;1.57;;
16159;SDS011;8185;57.818;15.224;2023-02-23T02:50:34;3.40;;;1.80;;
16159;SDS011;8185;57.818;15.224;2023-02-23T02:53:09;1.97;;;1.77;;
16159;SDS011;8185;57.818;15.224;2023-02-23T02:55:39;1.80;;;1.60;;
16159;SDS011;8185;57.818;15.224;2023-02-23T02:58:08;1.90;;;1.47;;
16159;SDS011;8185;57.818;15.224;2023-02-23T03:00:39;1.97;;;1.50;;
16159;SDS011;8185;57.818;15.224;2023-02-23T03:03:28;1.77;;;1.67;;
16159;SDS011;8185;57.818;15.224;2023-02-23T03:06:14;2.93;;;1.70;;
16159;SDS011;8185;57.818;15.224;2023-02-23T03:09:03;2.20;;;1.80;;
16159;SDS011;8185;57.818;15.224;2023-02-23T03:11:56;1.77;;;1.67;;
16159;SDS011;8185;57.818;15.224;2023-02-23T03:14:51;3.20;;;2.10;;
16159;SDS011;8185;57.818;15.224;2023-02-23T03:17:42;1.87;;;1.70;;
16159;SDS011;8185;57.818;15.224;2023-02-23T03:20:29;1.93;;;1.73;;
16159;SDS011;8185;57.818;15.224;2023-02-23T03:23:27;2.00;;;1.80;;
16159;SDS011;8185;57.818;15.224;2023-02-23T03:26:22;2.33;;;1.90;;
16159;SDS011;8185;57.818;15.224;2023-02-23T03:29:13;3.00;;;2.10;;
16159;SDS011;8185;57.818;15.224;2023-02-23T03:32:06;2.40;;;1.93;;
16159;SDS011;8185;57.818;15.224;2023-02-23T03:34:57;1.83;;;1.63;;
16159;SDS011;8185;57.818;15.224;2023-02-23T03:37:49;2.53;;;1.90;;
16159;SDS011;8185;57.818;15.224;2023-02-23T03:40:40;2.30;;;2.10;;
16159;SDS011;8185;57.818;15.224;2023-02-23T03:43:28;4.63;;;2.13;;
16159;SDS011;8185;57.818;15.224;2023-02-23T03:46:17;3.80;;;2.33;;
16159;SDS011;8185;57.818;15.224;2023-02-23T03:49:05;2.50;;;2.07;;
16159;SDS011;8185;57.818;15.224;2023-02-23T03:51:54;2.00;;;1.90;;
16159;SDS011;8185;57.818;15.224;2023-02-23T03:54:43;3.63;;;2.03;;
16159;SDS011;8185;57.818;15.224;2023-02-23T03:57:32;2.90;;;2.53;;
16159;SDS011;8185;57.818;15.224;2023-02-23T04:00:22;2.83;;;2.10;;
16159;SDS011;8185;57.818;15.224;2023-02-23T04:03:11;2.63;;;2.07;;
16159;SDS011;8185;57.818;15.224;2023-02-23T04:05:59;2.57;;;2.33;;
16159;SDS011;8185;57.818;15.224;2023-02-23T04:08:44;2.40;;;2.20;;
16159;SDS011;8185;57.818;15.224;2023-02-23T04:11:32;3.07;;;2.43;;
16159;SDS011;8185;57.818;15.224;2023-02-23T04:14:23;2.67;;;2.47;;
16159;SDS011;8185;57.818;15.224;2023-02-23T04:16:55;3.57;;;2.67;;
16159;SDS011;8185;57.818;15.224;2023-02-23T04:19:22;2.73;;;2.37;;
16159;SDS011;8185;57.818;15.224;2023-02-23T04:21:53;3.67;;;2.47;;
16159;SDS011;8185;57.818;15.224;2023-02-23T04:24:20;3.27;;;2.57;;
16159;SDS011;8185;57.818;15.224;2023-02-23T04:26:47;2.67;;;2.40;;
16159;SDS011;8185;57.818;15.224;2023-02-23T04:29:14;3.30;;;2.70;;
16159;SDS011;8185;57.818;15.224;2023-02-23T04:31:42;3.10;;;2.57;;
16159;SDS011;8185;57.818;15.224;2023-02-23T04:34:11;3.30;;;2.30;;
16159;SDS011;8185;57.818;15.224;2023-02-23T04:36:38;4.20;;;2.70;;
16159;SDS011;8185;57.818;15.224;2023-02-23T04:39:06;3.27;;;2.40;;
16159;SDS011;8185;57.818;15.224;2023-02-23T04:41:34;3.20;;;2.47;;
16159;SDS011;8185;57.818;15.224;2023-02-23T04:44:01;3.93;;;2.57;;
16159;SDS011;8185;57.818;15.224;2023-02-23T04:46:29;3.63;;;2.83;;
16159;SDS011;8185;57.818;15.224;2023-02-23T04:48:56;3.57;;;2.77;;
16159;SDS011;8185;57.818;15.224;2023-02-23T04:51:25;3.00;;;2.50;;
16159;SDS011;8185;57.818;15.224;2023-02-23T04:53:56;3.53;;;2.90;;
16159;SDS011;8185;57.818;15.224;2023-02-23T04:56:23;3.37;;;2.43;;
16159;SDS011;8185;57.818;15.224;2023-02-23T04:58:51;3.30;;;2.60;;
16159;SDS011;8185;57.818;15.224;2023-02-23T05:01:18;3.17;;;2.87;;
16159;SDS011;8185;57.818;15.224;2023-02-23T05:03:46;3.33;;;2.70;;
16159;SDS011;8185;57.818;15.224;2023-02-23T05:06:13;3.60;;;2.53;;
16159;SDS011;8185;57.818;15.224;2023-02-23T05:08:42;5.13;;;2.67;;
16159;SDS011;8185;57.818;15.224;2023-02-23T05:11:10;4.83;;;2.97;;
16159;SDS011;8185;57.818;15.224;2023-02-23T05:13:37;6.17;;;3.00;;
16159;SDS011;8185;57.818;15.224;2023-02-23T05:16:05;4.67;;;3.07;;
16159;SDS011;8185;57.818;15.224;2023-02-23T05:18:32;4.87;;;3.23;;
16159;SDS011;8185;57.818;15.224;2023-02-23T05:21:00;3.33;;;3.03;;
16159;SDS011;8185;57.818;15.224;2023-02-23T05:23:28;5.77;;;3.07;;
16159;SDS011;8185;57.818;15.224;2023-02-23T05:25:59;3.37;;;2.77;;
16159;SDS011;8185;57.818;15.224;2023-02-23T05:28:29;4.37;;;3.00;;
16159;SDS011;8185;57.818;15.224;2023-02-23T05:30:57;3.70;;;2.77;;
16159;SDS011;8185;57.818;15.224;2023-02-23T05:33:24;3.43;;;3.13;;
16159;SDS011;8185;57.818;15.224;2023-02-23T05:35:52;3.03;;;2.73;;
16159;SDS011;8185;57.818;15.224;2023-02-23T05:38:19;5.27;;;2.80;;
16159;SDS011;8185;57.818;15.224;2023-02-23T05:40:46;3.93;;;2.97;;
16159;SDS011;8185;57.818;15.224;2023-02-23T05:43:15;4.20;;;2.93;;
16159;SDS011;8185;57.818;15.224;2023-02-23T05:45:42;4.50;;;3.30;;
16159;SDS011;8185;57.818;15.224;2023-02-23T05:48:10;3.93;;;3.13;;
16159;SDS011;8185;57.818;15.224;2023-02-23T05:50:37;4.60;;;3.10;;
16159;SDS011;8185;57.818;15.224;2023-02-23T05:53:05;3.43;;;2.63;;
16159;SDS011;8185;57.818;15.224;2023-02-23T05:55:32;4.17;;;3.10;;
16159;SDS011;8185;57.818;15.224;2023-02-23T05:58:01;5.67;;;3.67;;
16159;SDS011;8185;57.818;15.224;2023-02-23T06:00:30;5.77;;;3.37;;
16159;SDS011;8185;57.818;15.224;2023-02-23T06:02:58;5.37;;;3.30;;
16159;SDS011;8185;57.818;15.224;2023-02-23T06:05:25;5.00;;;3.60;;
16159;SDS011;8185;57.818;15.224;2023-02-23T06:07:52;3.70;;;2.87;;
16159;SDS011;8185;57.818;15.224;2023-02-23T06:10:21;4.63;;;3.70;;
16159;SDS011;8185;57.818;15.224;2023-02-23T06:12:48;4.63;;;2.93;;
16159;SDS011;8185;57.818;15.224;2023-02-23T06:15:15;4.60;;;3.57;;
16159;SDS011;8185;57.818;15.224;2023-02-23T06:17:44;3.83;;;3.23;;
16159;SDS011;8185;57.818;15.224;2023-02-23T06:20:11;5.97;;;3.90;;
16159;SDS011;8185;57.818;15.224;2023-02-23T06:22:39;5.33;;;3.60;;
16159;SDS011;8185;57.818;15.224;2023-02-23T06:25:06;5.27;;;3.77;;
16159;SDS011;8185;57.818;15.224;2023-02-23T06:27:37;5.97;;;3.63;;
16159;SDS011;8185;57.818;15.224;2023-02-23T06:30:05;5.53;;;4.03;;
16159;SDS011;8185;57.818;15.224;2023-02-23T06:32:32;5.70;;;3.60;;
16159;SDS011;8185;57.818;15.224;2023-02-23T06:35:01;4.77;;;3.77;;
16159;SDS011;8185;57.818;15.224;2023-02-23T06:37:29;5.70;;;3.90;;
16159;SDS011;8185;57.818;15.224;2023-02-23T06:39:57;6.17;;;4.23;;
16159;SDS011;8185;57.818;15.224;2023-02-23T06:42:24;5.87;;;3.83;;
16159;SDS011;8185;57.818;15.224;2023-02-23T06:44:51;4.70;;;4.17;;
16159;SDS011;8185;57.818;15.224;2023-02-23T06:47:18;6.10;;;4.57;;
16159;SDS011;8185;57.818;15.224;2023-02-23T06:49:46;5.90;;;4.10;;
16159;SDS011;8185;57.818;15.224;2023-02-23T06:52:14;6.00;;;4.30;;
16159;SDS011;8185;57.818;15.224;2023-02-23T06:54:41;6.63;;;4.57;;
16159;SDS011;8185;57.818;15.224;2023-02-23T06:57:09;5.20;;;4.17;;
16159;SDS011;8185;57.818;15.224;2023-02-23T06:59:36;6.10;;;3.90;;
16159;SDS011;8185;57.818;15.224;2023-02-23T07:02:03;5.73;;;3.73;;
16159;SDS011;8185;57.818;15.224;2023-02-23T07:04:30;6.47;;;4.53;;
16159;SDS011;8185;57.818;15.224;2023-02-23T07:06:58;4.37;;;3.93;;
16159;SDS011;8185;57.818;15.224;2023-02-23T07:09:27;6.07;;;4.40;;
16159;SDS011;8185;57.818;15.224;2023-02-23T07:11:54;6.57;;;4.83;;
16159;SDS011;8185;57.818;15.224;2023-02-23T07:14:21;4.70;;;4.07;;
16159;SDS011;8185;57.818;15.224;2023-02-23T07:16:49;5.97;;;4.57;;
16159;SDS011;8185;57.818;15.224;2023-02-23T07:19:16;4.77;;;3.83;;
16159;SDS011;8185;57.818;15.224;2023-02-23T07:21:43;4.97;;;4.27;;
16159;SDS011;8185;57.818;15.224;2023-02-23T07:24:11;4.93;;;4.43;;
16159;SDS011;8185;57.818;15.224;2023-02-23T07:26:39;5.50;;;4.23;;
16159;SDS011;8185;57.818;15.224;2023-02-23T07:29:11;6.53;;;4.77;;
16159;SDS011;8185;57.818;15.224;2023-02-23T07:31:38;5.20;;;4.50;;
16159;SDS011;8185;57.818;15.224;2023-02-23T07:34:06;6.33;;;4.67;;
16159;SDS011;8185;57.818;15.224;2023-02-23T07:36:34;5.63;;;4.17;;
16159;SDS011;8185;57.818;15.224;2023-02-23T07:39:01;8.53;;;4.47;;
16159;SDS011;8185;57.818;15.224;2023-02-23T07:41:29;5.67;;;3.87;;
16159;SDS011;8185;57.818;15.224;2023-02-23T07:43:58;5.80;;;4.60;;
16159;SDS011;8185;57.818;15.224;2023-02-23T07:46:25;5.43;;;3.50;;
16159;SDS011;8185;57.818;15.224;2023-02-23T07:48:52;5.40;;;4.57;;
16159;SDS011;8185;57.818;15.224;2023-02-23T07:51:20;7.27;;;4.37;;
16159;SDS011;8185;57.818;15.224;2023-02-23T07:53:47;6.10;;;4.40;;
16159;SDS011;8185;57.818;15.224;2023-02-23T07:56:14;5.73;;;4.20;;
16159;SDS011;8185;57.818;15.224;2023-02-23T07:58:42;5.00;;;4.03;;
16159;SDS011;8185;57.818;15.224;2023-02-23T08:01:11;5.10;;;4.37;;
16159;SDS011;8185;57.818;15.224;2023-02-23T08:03:39;6.60;;;4.20;;
16159;SDS011;8185;57.818;15.224;2023-02-23T08:06:14;6.83;;;4.77;;
16159;SDS011;8185;57.818;15.224;2023-02-23T08:08:41;4.87;;;4.27;;
16159;SDS011;8185;57.818;15.224;2023-02-23T08:11:08;5.63;;;4.83;;
16159;SDS011;8185;57.818;15.224;2023-02-23T08:13:36;4.83;;;3.83;;
16159;SDS011;8185;57.818;15.224;2023-02-23T08:16:03;8.47;;;4.73;;
16159;SDS011;8185;57.818;15.224;2023-02-23T08:18:32;5.90;;;4.53;;
16159;SDS011;8185;57.818;15.224;2023-02-23T08:21:00;4.87;;;4.03;;
16159;SDS011;8185;57.818;15.224;2023-02-23T08:23:29;6.10;;;4.37;;
16159;SDS011;8185;57.818;15.224;2023-02-23T08:25:57;7.80;;;4.40;;
16159;SDS011;8185;57.818;15.224;2023-02-23T08:28:24;6.97;;;4.60;;
16159;SDS011;8185;57.818;15.224;2023-02-23T08:30:52;6.03;;;4.77;;
16159;SDS011;8185;57.818;15.224;2023-02-23T08:33:20;5.13;;;4.47;;
16159;SDS011;8185;57.818;15.224;2023-02-23T08:35:48;4.77;;;4.30;;
16159;SDS011;8185;57.818;15.224;2023-02-23T08:38:17;4.83;;;4.33;;
16159;SDS011;8185;57.818;15.224;2023-02-23T08:40:45;6.10;;;4.13;;
16159;SDS011;8185;57.818;15.224;2023-02-23T08:43:12;4.37;;;3.90;;
16159;SDS011;8185;57.818;15.224;2023-02-23T08:45:39;4.83;;;4.23;;
16159;SDS011;8185;57.818;15.224;2023-02-23T08:48:07;4.60;;;4.10;;
16159;SDS011;8185;57.818;15.224;2023-02-23T08:50:34;6.40;;;4.13;;
16159;SDS011;8185;57.818;15.224;2023-02-23T08:53:02;5.57;;;4.67;;
16159;SDS011;8185;57.818;15.224;2023-02-23T08:55:31;6.33;;;4.73;;
16159;SDS011;8185;57.818;15.224;2023-02-23T08:57:59;5.20;;;3.97;;
16159;SDS011;8185;57.818;15.224;2023-02-23T09:00:27;5.77;;;4.57;;
16159;SDS011;8185;57.818;15.224;2023-02-23T09:02:55;5.20;;;4.37;;
16159;SDS011;8185;57.818;15.224;2023-02-23T09:05:22;7.07;;;4.43;;
16159;SDS011;8185;57.818;15.224;2023-02-23T09:07:49;5.30;;;4.37;;
16159;SDS011;8185;57.818;15.224;2023-02-23T09:10:18;6.87;;;4.90;;
16159;SDS011;8185;57.818;15.224;2023-02-23T09:12:49;5.57;;;4.10;;
16159;SDS011;8185;57.818;15.224;2023-02-23T09:15:16;5.70;;;4.53;;
16159;SDS011;8185;57.818;15.224;2023-02-23T09:17:43;5.53;;;4.70;;
16159;SDS011;8185;57.818;15.224;2023-02-23T09:20:11;6.70;;;5.30;;
16159;SDS011;8185;57.818;15.224;2023-02-23T09:22:40;5.87;;;4.50;;
16159;SDS011;8185;57.818;15.224;2023-02-23T09:25:09;6.53;;;4.60;;
16159;SDS011;8185;57.818;15.224;2023-02-23T09:27:38;6.47;;;4.87;;
16159;SDS011;8185;57.818;15.224;2023-02-23T09:30:06;6.50;;;4.60;;
16159;SDS011;8185;57.818;15.224;2023-02-23T09:32:34;5.37;;;4.07;;
16159;SDS011;8185;57.818;15.224;2023-02-23T09:35:01;4.90;;;4.40;;
16159;SDS011;8185;57.818;15.224;2023-02-23T09:37:28;6.03;;;5.17;;
16159;SDS011;8185;57.818;15.224;2023-02-23T09:39:56;7.20;;;5.40;;
16159;SDS011;8185;57.818;15.224;2023-02-23T09:42:24;5.60;;;4.80;;
16159;SDS011;8185;57.818;15.224;2023-02-23T09:48:07;4.87;;;4.37;;
16159;SDS011;8185;57.818;15.224;2023-02-23T09:50:41;6.23;;;5.30;;
16159;SDS011;8185;57.818;15.224;2023-02-23T09:53:16;6.33;;;5.00;;
16159;SDS011;8185;57.818;15.224;2023-02-23T09:55:54;7.47;;;4.67;;
16159;SDS011;8185;57.818;15.224;2023-02-23T09:58:24;6.43;;;4.40;;
16159;SDS011;8185;57.818;15.224;2023-02-23T10:01:01;5.80;;;4.43;;
16159;SDS011;8185;57.818;15.224;2023-02-23T10:03:46;5.43;;;4.23;;
16159;SDS011;8185;57.818;15.224;2023-02-23T10:06:18;5.07;;;4.43;;
16159;SDS011;8185;57.818;15.224;2023-02-23T10:08:48;4.60;;;4.03;;
16159;SDS011;8185;57.818;15.224;2023-02-23T10:11:26;5.00;;;4.50;;
16159;SDS011;8185;57.818;15.224;2023-02-23T10:14:03;5.10;;;3.70;;
16159;SDS011;8185;57.818;15.224;2023-02-23T10:16:44;4.77;;;4.20;;
16159;SDS011;8185;57.818;15.224;2023-02-23T10:19:24;4.37;;;3.97;;
16159;SDS011;8185;57.818;15.224;2023-02-23T10:22:00;7.67;;;5.13;;
16159;SDS011;8185;57.818;15.224;2023-02-23T10:24:31;6.47;;;4.60;;
16159;SDS011;8185;57.818;15.224;2023-02-23T10:27:04;5.03;;;4.00;;
16159;SDS011;8185;57.818;15.224;2023-02-23T10:29:37;4.83;;;4.13;;
16159;SDS011;8185;57.818;15.224;2023-02-23T10:32:14;5.67;;;3.70;;
16159;SDS011;8185;57.818;15.224;2023-02-23T10:34:46;4.33;;;3.93;;
16159;SDS011;8185;57.818;15.224;2023-02-23T10:37:18;4.87;;;3.90;;
16159;SDS011;8185;57.818;15.224;2023-02-23T10:39:45;3.90;;;3.50;;
16159;SDS011;8185;57.818;15.224;2023-02-23T10:42:14;4.23;;;3.83;;
16159;SDS011;8185;57.818;15.224;2023-02-23T10:44:47;4.60;;;3.70;;
16159;SDS011;8185;57.818;15.224;2023-02-23T10:47:16;4.93;;;4.30;;
16159;SDS011;8185;57.818;15.224;2023-02-23T10:49:47;3.20;;;2.90;;
16159;SDS011;8185;57.818;15.224;2023-02-23T10:52:17;4.23;;;2.97;;
16159;SDS011;8185;57.818;15.224;2023-02-23T10:54:48;5.23;;;4.37;;
16159;SDS011;8185;57.818;15.224;2023-02-23T10:57:20;4.00;;;3.33;;
16159;SDS011;8185;57.818;15.224;2023-02-23T11:02:56;6.07;;;5.20;;
16159;SDS011;8185;57.818;15.224;2023-02-23T11:05:27;4.60;;;4.20;;
16159;SDS011;8185;57.818;15.224;2023-02-23T11:08:20;5.10;;;4.60;;
16159;SDS011;8185;57.818;15.224;2023-02-23T11:11:03;4.10;;;3.70;;
16159;SDS011;8185;57.818;15.224;2023-02-23T11:13:34;5.97;;;4.70;;
16159;SDS011;8185;57.818;15.224;2023-02-23T11:16:04;5.07;;;3.13;;
16159;SDS011;8185;57.818;15.224;2023-02-23T11:18:35;4.97;;;4.00;;
16159;SDS011;8185;57.818;15.224;2023-02-23T11:21:08;4.53;;;4.07;;
16159;SDS011;8185;57.818;15.224;2023-02-23T11:23:42;7.80;;;6.20;;
16159;SDS011;8185;57.818;15.224;2023-02-23T11:26:29;5.07;;;4.57;;
16159;SDS011;8185;57.818;15.224;2023-02-23T11:29:02;5.23;;;4.37;;
16159;SDS011;8185;57.818;15.224;2023-02-23T11:31:39;7.87;;;5.53;;
16159;SDS011;8185;57.818;15.224;2023-02-23T11:34:18;4.13;;;3.40;;
16159;SDS011;8185;57.818;15.224;2023-02-23T11:36:56;4.90;;;4.07;;
16159;SDS011;8185;57.818;15.224;2023-02-23T11:39:25;6.17;;;3.63;;
16159;SDS011;8185;57.818;15.224;2023-02-23T11:44:44;4.00;;;3.60;;
16159;SDS011;8185;57.818;15.224;2023-02-23T11:47:16;5.03;;;3.67;;
16159;SDS011;8185;57.818;15.224;2023-02-23T11:49:48;3.90;;;3.40;;
16159;SDS011;8185;57.818;15.224;2023-02-23T11:52:17;4.67;;;4.17;;
16159;SDS011;8185;57.818;15.224;2023-02-23T11:54:49;3.53;;;3.23;;
16159;SDS011;8185;57.818;15.224;2023-02-23T11:57:20;4.27;;;3.77;;
16159;SDS011;8185;57.818;15.224;2023-02-23T11:59:48;4.90;;;4.33;;
16159;SDS011;8185;57.818;15.224;2023-02-23T12:02:20;3.63;;;3.13;;
16159;SDS011;8185;57.818;15.224;2023-02-23T12:04:52;4.60;;;3.40;;
16159;SDS011;8185;57.818;15.224;2023-02-23T12:07:31;4.00;;;3.60;;
16159;SDS011;8185;57.818;15.224;2023-02-23T12:10:10;3.50;;;3.20;;
16159;SDS011;8185;57.818;15.224;2023-02-23T12:12:49;4.47;;;3.50;;
16159;SDS011;8185;57.818;15.224;2023-02-23T12:15:25;3.77;;;3.37;;
16159;SDS011;8185;57.818;15.224;2023-02-23T12:18:01;3.97;;;3.40;;
16159;SDS011;8185;57.818;15.224;2023-02-23T12:20:38;4.20;;;3.60;;
16159;SDS011;8185;57.818;15.224;2023-02-23T12:23:10;4.47;;;4.07;;
16159;SDS011;8185;57.818;15.224;2023-02-23T12:25:44;4.23;;;3.70;;
16159;SDS011;8185;57.818;15.224;2023-02-23T12:28:16;4.50;;;4.10;;
16159;SDS011;8185;57.818;15.224;2023-02-23T12:30:50;4.10;;;3.70;;
16159;SDS011;8185;57.818;15.224;2023-02-23T12:33:23;4.10;;;3.70;;
16159;SDS011;8185;57.818;15.224;2023-02-23T12:36:00;3.87;;;3.30;;
16159;SDS011;8185;57.818;15.224;2023-02-23T12:38:38;4.37;;;3.80;;
16159;SDS011;8185;57.818;15.224;2023-02-23T12:41:15;4.00;;;3.40;;
16159;SDS011;8185;57.818;15.224;2023-02-23T12:43:47;4.70;;;3.40;;
16159;SDS011;8185;57.818;15.224;2023-02-23T12:46:19;4.77;;;4.00;;
16159;SDS011;8185;57.818;15.224;2023-02-23T12:48:52;4.37;;;3.17;;
16159;SDS011;8185;57.818;15.224;2023-02-23T12:51:29;5.00;;;3.50;;
16159;SDS011;8185;57.818;15.224;2023-02-23T12:54:00;4.30;;;3.90;;
16159;SDS011;8185;57.818;15.224;2023-02-23T12:56:34;4.13;;;3.73;;
16159;SDS011;8185;57.818;15.224;2023-02-23T12:59:38;4.13;;;3.63;;
16159;SDS011;8185;57.818;15.224;2023-02-23T13:02:21;4.77;;;4.07;;
16159;SDS011;8185;57.818;15.224;2023-02-23T13:07:51;4.70;;;4.07;;
16159;SDS011;8185;57.818;15.224;2023-02-23T13:10:28;5.23;;;4.73;;
16159;SDS011;8185;57.818;15.224;2023-02-23T13:13:04;5.80;;;5.10;;
16159;SDS011;8185;57.818;15.224;2023-02-23T13:15:46;9.77;;;7.87;;
16159;SDS011;8185;57.818;15.224;2023-02-23T13:18:23;6.93;;;5.17;;
16159;SDS011;8185;57.818;15.224;2023-02-23T13:20:57;5.87;;;5.27;;
16159;SDS011;8185;57.818;15.224;2023-02-23T13:23:33;7.77;;;6.97;;
16159;SDS011;8185;57.818;15.224;2023-02-23T13:26:07;5.03;;;4.13;;
16159;SDS011;8185;57.818;15.224;2023-02-23T13:28:45;4.70;;;3.60;;
16159;SDS011;8185;57.818;15.224;2023-02-23T13:31:24;5.57;;;3.57;;
16159;SDS011;8185;57.818;15.224;2023-02-23T13:33:55;8.80;;;7.73;;
16159;SDS011;8185;57.818;15.224;2023-02-23T13:36:25;6.53;;;4.77;;
16159;SDS011;8185;57.818;15.224;2023-02-23T13:41:51;5.13;;;4.63;;
16159;SDS011;8185;57.818;15.224;2023-02-23T13:44:31;4.70;;;4.17;;
16159;SDS011;8185;57.818;15.224;2023-02-23T13:47:05;5.07;;;3.60;;
16159;SDS011;8185;57.818;15.224;2023-02-23T13:49:39;4.57;;;3.93;;
16159;SDS011;8185;57.818;15.224;2023-02-23T13:52:18;5.53;;;4.23;;
16159;SDS011;8185;57.818;15.224;2023-02-23T13:54:54;5.30;;;4.57;;
16159;SDS011;8185;57.818;15.224;2023-02-23T13:57:26;5.57;;;4.53;;
16159;SDS011;8185;57.818;15.224;2023-02-23T13:59:54;5.87;;;4.50;;
16159;SDS011;8185;57.818;15.224;2023-02-23T14:02:24;5.27;;;4.40;;
16159;SDS011;8185;57.818;15.224;2023-02-23T14:05:04;5.27;;;4.77;;
16159;SDS011;8185;57.818;15.224;2023-02-23T14:07:41;5.03;;;4.30;;
16159;SDS011;8185;57.818;15.224;2023-02-23T14:10:16;6.30;;;4.20;;
16159;SDS011;8185;57.818;15.224;2023-02-23T14:13:03;6.33;;;4.97;;
16159;SDS011;8185;57.818;15.224;2023-02-23T14:15:40;6.13;;;5.13;;
16159;SDS011;8185;57.818;15.224;2023-02-23T14:18:29;6.63;;;5.97;;
16159;SDS011;8185;57.818;15.224;2023-02-23T14:21:01;5.70;;;5.20;;
16159;SDS011;8185;57.818;15.224;2023-02-23T14:23:51;6.43;;;5.20;;
16159;SDS011;8185;57.818;15.224;2023-02-23T14:26:42;5.40;;;4.90;;
16159;SDS011;8185;57.818;15.224;2023-02-23T14:29:21;6.97;;;5.33;;
16159;SDS011;8185;57.818;15.224;2023-02-23T14:31:55;7.17;;;4.73;;
16159;SDS011;8185;57.818;15.224;2023-02-23T14:34:44;6.03;;;5.13;;
16159;SDS011;8185;57.818;15.224;2023-02-23T14:37:18;8.33;;;5.73;;
16159;SDS011;8185;57.818;15.224;2023-02-23T14:39:50;5.87;;;5.23;;
16159;SDS011;8185;57.818;15.224;2023-02-23T14:42:22;5.37;;;4.70;;
16159;SDS011;8185;57.818;15.224;2023-02-23T14:44:51;7.87;;;5.27;;
16159;SDS011;8185;57.818;15.224;2023-02-23T14:47:20;6.53;;;5.83;;
16159;SDS011;8185;57.818;15.224;2023-02-23T14:49:49;6.33;;;5.50;;
16159;SDS011;8185;57.818;15.224;2023-02-23T14:52:20;5.63;;;4.93;;
16159;SDS011;8185;57.818;15.224;2023-02-23T14:54:50;7.00;;;4.93;;
16159;SDS011;8185;57.818;15.224;2023-02-23T14:57:19;7.30;;;6.00;;
16159;SDS011;8185;57.818;15.224;2023-02-23T14:59:53;7.17;;;5.43;;
16159;SDS011;8185;57.818;15.224;2023-02-23T15:02:24;5.90;;;5.23;;
16159;SDS011;8185;57.818;15.224;2023-02-23T15:04:53;6.97;;;5.60;;
16159;SDS011;8185;57.818;15.224;2023-02-23T15:07:21;5.60;;;5.03;;
16159;SDS011;8185;57.818;15.224;2023-02-23T15:09:56;5.97;;;5.37;;
16159;SDS011;8185;57.818;15.224;2023-02-23T15:12:26;7.77;;;6.30;;
16159;SDS011;8185;57.818;15.224;2023-02-23T15:14:56;8.30;;;6.00;;
16159;SDS011;8185;57.818;15.224;2023-02-23T15:17:26;6.87;;;6.03;;
16159;SDS011;8185;57.818;15.224;2023-02-23T15:19:58;7.90;;;6.63;;
16159;SDS011;8185;57.818;15.224;2023-02-23T15:22:28;8.07;;;6.07;;
16159;SDS011;8185;57.818;15.224;2023-02-23T15:24:59;5.90;;;4.70;;
16159;SDS011;8185;57.818;15.224;2023-02-23T15:27:29;5.23;;;4.73;;
16159;SDS011;8185;57.818;15.224;2023-02-23T15:32:47;5.20;;;4.30;;
16159;SDS011;8185;57.818;15.224;2023-02-23T15:35:14;6.87;;;5.20;;
16159;SDS011;8185;57.818;15.224;2023-02-23T15:37:43;5.13;;;4.63;;
16159;SDS011;8185;57.818;15.224;2023-02-23T15:40:14;6.57;;;5.87;;
16159;SDS011;8185;57.818;15.224;2023-02-23T15:42:46;7.00;;;5.87;;
16159;SDS011;8185;57.818;15.224;2023-02-23T15:45:18;6.80;;;5.97;;
16159;SDS011;8185;57.818;15.224;2023-02-23T15:47:53;6.30;;;5.20;;
16159;SDS011;8185;57.818;15.224;2023-02-23T15:50:25;6.73;;;5.20;;